Time;durP1;ratioP1;P1;durP2;ratioP2;P2;SDS_P1;SDS_P2;PMS_P1;PMS_P2;Temp;Humidity;BMP_temperature;BMP_pressure;BME280_temperature;BME280_humidity;BME280_pressure;Samples;Min_cycle;Max_cycle;Signal;HPM_P1;HPM_P2
2023/08/16 00:00:43;;;;;;;36.97;34.33;;;;;;;;;;5013528;28;20481;-59
2023/08/16 00:03:08;;;;;;;40.10;37.07;;;;;;;;;;5011764;28;20013;-59
2023/08/16 00:05:33;;;;;;;31.10;28.88;;;;;;;;;;5014246;28;20032;-59
2023/08/16 00:07:59;;;;;;;41.70;38.73;;;;;;;;;;5008218;28;20021;-59
2023/08/16 00:10:24;;;;;;;48.40;45.10;;;;;;;;;;5013917;28;20542;-59
2023/08/16 00:12:49;;;;;;;41.87;38.80;;;;;;;;;;5012427;28;20018;-59
2023/08/16 00:15:14;;;;;;;36.77;34.13;;;;;;;;;;5008665;28;20095;-59
2023/08/16 00:17:39;;;;;;;42.93;39.93;;;;;;;;;;5014586;28;20109;-59
2023/08/16 00:20:06;;;;;;;47.93;44.63;;;;;;;;;;5011217;28;20029;-59
2023/08/16 00:22:31;;;;;;;43.85;40.60;;;;;;;;;;5010135;28;20543;-59
2023/08/16 00:24:56;;;;;;;58.63;54.75;;;;;;;;;;5008718;28;20029;-59
2023/08/16 00:27:21;;;;;;;54.97;51.07;;;;;;;;;;5012972;28;20046;-59
2023/08/16 00:29:46;;;;;;;41.93;38.93;;;;;;;;;;5012333;28;20559;-59
2023/08/16 00:32:12;;;;;;;45.03;41.70;;;;;;;;;;5013228;28;20072;-59
2023/08/16 00:34:37;;;;;;;58.40;54.37;;;;;;;;;;5009354;28;20436;-60
2023/08/16 00:37:02;;;;;;;40.27;37.30;;;;;;;;;;5011998;28;20385;-59
2023/08/16 00:39:27;;;;;;;57.83;54.00;;;;;;;;;;5009001;28;20022;-59
2023/08/16 00:41:52;;;;;;;44.90;41.60;;;;;;;;;;5011583;28;20010;-59
2023/08/16 00:44:18;;;;;;;60.95;56.65;;;;;;;;;;5009729;28;20022;-59
2023/08/16 00:46:43;;;;;;;51.40;47.90;;;;;;;;;;5007032;28;20022;-59
2023/08/16 00:49:08;;;;;;;44.75;41.58;;;;;;;;;;5011051;28;20029;-59
2023/08/16 00:51:33;;;;;;;30.07;27.97;;;;;;;;;;5006394;28;20014;-59
2023/08/16 00:53:59;;;;;;;43.67;40.63;;;;;;;;;;5005101;28;20029;-59
2023/08/16 00:56:24;;;;;;;38.90;35.93;;;;;;;;;;5009468;28;20018;-59
2023/08/16 00:58:49;;;;;;;51.88;48.47;;;;;;;;;;5008124;28;20030;-58
2023/08/16 01:01:15;;;;;;;57.47;53.50;;;;;;;;;;5001717;28;20026;-60
2023/08/16 01:03:40;;;;;;;59.95;55.83;;;;;;;;;;5004329;28;20061;-59
2023/08/16 01:06:05;;;;;;;25.87;23.97;;;;;;;;;;5009055;28;20405;-59
2023/08/16 01:08:30;;;;;;;;;;;;;;;;;;5002609;28;20106;-59
2023/08/16 01:10:55;;;;;;;28.48;26.38;;;;;;;;;;5005472;28;19949;-59
2023/08/16 01:13:26;;;;;;;45.42;42.28;;;;;;;;;;5012349;28;20033;-59
2023/08/16 01:15:52;;;;;;;44.72;41.58;;;;;;;;;;5008650;28;20101;-59
2023/08/16 01:18:18;;;;;;;38.17;35.42;;;;;;;;;;5004677;28;20551;-59
2023/08/16 01:20:44;;;;;;;52.30;48.50;;;;;;;;;;5012040;28;20037;-59
2023/08/16 01:23:14;;;;;;;46.17;43.08;;;;;;;;;;5010948;28;20067;-59
2023/08/16 01:25:39;;;;;;;44.05;40.95;;;;;;;;;;5008122;28;20014;-59
2023/08/16 01:28:05;;;;;;;51.63;48.00;;;;;;;;;;5006175;28;20033;-59
2023/08/16 01:30:30;;;;;;;42.95;39.72;;;;;;;;;;5006461;28;20029;-58
2023/08/16 01:32:55;;;;;;;51.00;47.40;;;;;;;;;;4998683;28;20026;-59
2023/08/16 01:35:21;;;;;;;52.87;49.37;;;;;;;;;;5005503;28;20037;-59
2023/08/16 01:37:47;;;;;;;41.75;38.85;;;;;;;;;;5015302;28;20476;-59
2023/08/16 01:40:13;;;;;;;53.03;49.53;;;;;;;;;;5004835;28;20030;-59
2023/08/16 01:42:43;;;;;;;44.75;41.60;;;;;;;;;;5019266;28;20017;-59
2023/08/16 01:45:09;;;;;;;46.63;43.17;;;;;;;;;;5003628;28;20026;-59
2023/08/16 01:47:35;;;;;;;43.65;40.40;;;;;;;;;;5004779;28;20029;-59
2023/08/16 01:50:01;;;;;;;46.60;43.40;;;;;;;;;;5006015;28;20045;-58
2023/08/16 01:52:28;;;;;;;39.90;36.78;;;;;;;;;;5011588;28;20032;-59
2023/08/16 01:54:53;;;;;;;46.58;43.20;;;;;;;;;;5004124;28;20022;-59
2023/08/16 01:57:18;;;;;;;39.50;36.65;;;;;;;;;;5001592;28;20068;-59
2023/08/16 01:59:43;;;;;;;40.58;37.42;;;;;;;;;;5003790;28;20072;-58
2023/08/16 02:02:08;;;;;;;62.13;57.83;;;;;;;;;;5006136;28;20492;-59
2023/08/16 02:04:33;;;;;;;56.28;52.22;;;;;;;;;;5007415;28;20040;-59
2023/08/16 02:06:58;;;;;;;48.03;44.72;;;;;;;;;;5010347;28;20018;-59
2023/08/16 02:09:24;;;;;;;52.70;49.07;;;;;;;;;;5004708;28;20025;-59
2023/08/16 02:11:49;;;;;;;61.17;56.60;;;;;;;;;;5006420;28;20029;-59
2023/08/16 02:14:14;;;;;;;38.77;35.93;;;;;;;;;;5010955;28;20476;-59
2023/08/16 02:16:39;;;;;;;57.03;53.17;;;;;;;;;;5006552;28;20220;-59
2023/08/16 02:19:04;;;;;;;62.43;58.07;;;;;;;;;;5007645;28;20046;-59
2023/08/16 02:21:30;;;;;;;72.50;67.77;;;;;;;;;;5011461;28;20044;-59
2023/08/16 02:23:55;;;;;;;;;;;;;;;;;;5011272;28;20092;-58
2023/08/16 02:26:20;;;;;;;40.55;37.40;;;;;;;;;;5009357;28;20327;-59
2023/08/16 02:28:47;;;;;;;56.30;52.50;;;;;;;;;;5011307;28;20021;-59
2023/08/16 02:31:12;;;;;;;52.42;48.67;;;;;;;;;;5000189;28;20081;-58
2023/08/16 02:33:37;;;;;;;38.37;35.60;;;;;;;;;;5007911;28;20021;-59
2023/08/16 02:36:02;;;;;;;46.33;42.87;;;;;;;;;;5009216;28;20485;-58
2023/08/16 02:38:28;;;;;;;67.30;62.00;;;;;;;;;;5008376;28;20092;-59
2023/08/16 02:40:53;;;;;;;41.33;38.30;;;;;;;;;;5000847;28;20029;-58
2023/08/16 02:43:18;;;;;;;60.65;56.13;;;;;;;;;;5009743;28;20789;-58
2023/08/16 02:45:44;;;;;;;48.77;45.10;;;;;;;;;;5004959;28;20026;-59
2023/08/16 02:48:09;;;;;;;74.40;69.50;;;;;;;;;;5007047;28;20034;-59
2023/08/16 02:50:34;;;;;;;60.87;56.27;;;;;;;;;;5005110;28;20021;-58
2023/08/16 02:52:59;;;;;;;53.75;49.83;;;;;;;;;;5007266;28;20022;-59
2023/08/16 02:55:24;;;;;;;46.63;43.13;;;;;;;;;;5009628;28;20948;-58
2023/08/16 02:57:49;;;;;;;59.40;55.20;;;;;;;;;;5006770;28;20029;-58
2023/08/16 03:00:15;;;;;;;62.83;58.60;;;;;;;;;;5005188;28;20057;-58
2023/08/16 03:02:40;;;;;;;;;;;;;;;;;;5009058;28;20769;-59
2023/08/16 03:05:06;;;;;;;50.90;47.20;;;;;;;;;;5006430;28;19917;-58
2023/08/16 03:07:31;;;;;;;54.10;50.45;;;;;;;;;;4997746;28;20062;-59
2023/08/16 03:09:56;;;;;;;45.33;42.20;;;;;;;;;;5007424;28;20022;-59
2023/08/16 03:12:21;;;;;;;70.63;65.88;;;;;;;;;;5000125;28;20460;-58
2023/08/16 03:14:46;;;;;;;65.67;61.17;;;;;;;;;;5002574;28;20038;-59
2023/08/16 03:17:12;;;;;;;56.42;52.45;;;;;;;;;;5006472;28;20436;-59
2023/08/16 03:19:37;;;;;;;49.33;45.97;;;;;;;;;;5009324;28;20026;-59
2023/08/16 03:22:02;;;;;;;40.37;37.57;;;;;;;;;;5006800;28;20022;-59
2023/08/16 03:24:27;;;;;;;68.82;64.13;;;;;;;;;;5008692;28;20018;-59
2023/08/16 03:26:53;;;;;;;51.97;48.35;;;;;;;;;;5008498;28;20025;-58
2023/08/16 03:29:18;;;;;;;55.27;51.43;;;;;;;;;;5007591;28;20112;-58
2023/08/16 03:31:43;;;;;;;70.53;65.93;;;;;;;;;;5004605;28;20445;-59
2023/08/16 03:34:08;;;;;;;38.13;35.33;;;;;;;;;;5006545;28;20093;-59
2023/08/16 03:36:33;;;;;;;55.17;51.37;;;;;;;;;;5006521;28;20022;-59
2023/08/16 03:38:59;;;;;;;47.97;44.80;;;;;;;;;;5010790;28;20037;-59
2023/08/16 03:41:24;;;;;;;56.37;52.37;;;;;;;;;;5000419;28;20026;-58
2023/08/16 03:43:49;;;;;;;50.33;47.10;;;;;;;;;;5008792;28;20022;-59
2023/08/16 03:46:14;;;;;;;52.17;48.63;;;;;;;;;;5007351;28;20069;-59
2023/08/16 03:48:39;;;;;;;58.53;54.67;;;;;;;;;;5010285;28;20021;-59
2023/08/16 03:51:04;;;;;;;45.08;41.88;;;;;;;;;;5007596;28;20022;-59
2023/08/16 03:53:30;;;;;;;50.40;47.03;;;;;;;;;;5006947;28;20428;-59
2023/08/16 03:55:56;;;;;;;57.72;53.85;;;;;;;;;;5005128;28;20464;-59
2023/08/16 03:58:21;;;;;;;50.83;47.38;;;;;;;;;;5007488;28;20037;-59
2023/08/16 04:00:52;;;;;;;62.20;57.87;;;;;;;;;;5003139;28;20033;-59
2023/08/16 04:03:17;;;;;;;46.10;42.80;;;;;;;;;;5004875;28;20492;-59
2023/08/16 04:05:43;;;;;;;50.63;46.92;;;;;;;;;;5000702;28;20097;-59
2023/08/16 04:08:08;;;;;;;42.85;40.08;;;;;;;;;;5006058;28;20026;-57
2023/08/16 04:10:33;;;;;;;51.10;47.57;;;;;;;;;;5007235;28;20689;-57
2023/08/16 04:12:58;;;;;;;57.63;53.83;;;;;;;;;;5010583;28;20144;-58
2023/08/16 04:15:23;;;;;;;47.07;43.67;;;;;;;;;;5003118;28;20084;-57
2023/08/16 04:17:49;;;;;;;58.08;53.97;;;;;;;;;;5007248;28;20018;-57
2023/08/16 04:20:14;;;;;;;54.57;51.03;;;;;;;;;;5008222;28;20023;-57
2023/08/16 04:22:39;;;;;;;46.20;43.17;;;;;;;;;;5012270;28;20026;-57
2023/08/16 04:25:04;;;;;;;50.90;47.43;;;;;;;;;;5011312;28;20088;-58
2023/08/16 04:27:29;;;;;;;;;;;;;;;;;;5007004;28;20030;-57
2023/08/16 04:29:55;;;;;;;45.05;41.72;;;;;;;;;;5007720;28;19914;-57
2023/08/16 04:32:20;;;;;;;48.93;45.43;;;;;;;;;;5008675;28;20402;-57
2023/08/16 04:34:45;;;;;;;40.57;37.87;;;;;;;;;;5006224;28;20084;-57
2023/08/16 04:37:10;;;;;;;49.80;46.38;;;;;;;;;;5012828;28;20053;-57
2023/08/16 04:39:35;;;;;;;60.83;56.80;;;;;;;;;;5013928;28;20388;-57
2023/08/16 04:42:00;;;;;;;57.77;53.77;;;;;;;;;;5014349;28;20026;-58
2023/08/16 04:44:26;;;;;;;55.53;51.22;;;;;;;;;;5010594;28;20030;-58
2023/08/16 04:46:51;;;;;;;70.23;65.67;;;;;;;;;;5012727;28;20017;-57
2023/08/16 04:49:16;;;;;;;53.37;49.27;;;;;;;;;;5012655;28;20022;-58
2023/08/16 04:51:41;;;;;;;43.80;40.50;;;;;;;;;;5008873;28;20030;-58
2023/08/16 04:54:07;;;;;;;46.83;43.63;;;;;;;;;;5006976;28;20025;-57
2023/08/16 04:56:32;;;;;;;54.00;50.35;;;;;;;;;;5009917;28;20032;-57
2023/08/16 04:58:57;;;;;;;56.60;52.63;;;;;;;;;;5000728;28;20113;-57
2023/08/16 05:01:23;;;;;;;45.80;42.57;;;;;;;;;;5000285;28;20041;-57
2023/08/16 05:03:51;;;;;;;67.97;63.47;;;;;;;;;;4998214;28;20108;-58
2023/08/16 05:06:17;;;;;;;44.42;41.35;;;;;;;;;;5005716;28;20030;-57
2023/08/16 05:08:42;;;;;;;57.45;53.45;;;;;;;;;;5007899;28;20041;-57
2023/08/16 05:11:07;;;;;;;;;;;;;;;;;;5006103;28;20702;-57
2023/08/16 05:13:32;;;;;;;37.65;35.13;;;;;;;;;;5007348;28;19910;-58
2023/08/16 05:15:58;;;;;;;45.83;42.50;;;;;;;;;;5006430;28;20106;-58
2023/08/16 05:18:23;;;;;;;;;;;;;;;;;;4997503;28;20030;-57
2023/08/16 05:20:48;;;;;;;46.80;43.67;;;;;;;;;;5003735;28;20003;-57
2023/08/16 05:23:13;;;;;;;46.10;42.90;;;;;;;;;;4999954;28;20034;-57
2023/08/16 05:25:38;;;;;;;48.87;45.43;;;;;;;;;;5004517;28;20014;-57
2023/08/16 05:28:04;;;;;;;62.03;57.97;;;;;;;;;;5000199;28;20030;-57
2023/08/16 05:30:29;;;;;;;43.88;40.75;;;;;;;;;;5007481;28;20858;-57
2023/08/16 05:32:55;;;;;;;52.33;48.53;;;;;;;;;;5008471;28;20026;-57
2023/08/16 05:35:20;;;;;;;49.65;46.33;;;;;;;;;;5008894;28;20104;-57
2023/08/16 05:37:45;;;;;;;50.97;47.43;;;;;;;;;;5008395;28;20018;-57
2023/08/16 05:40:10;;;;;;;;;;;;;;;;;;5006315;28;20102;-58
2023/08/16 05:42:35;;;;;;;46.55;43.40;;;;;;;;;;5003549;28;20383;-57
2023/08/16 05:45:01;;;;;;;54.27;50.53;;;;;;;;;;4998491;28;20528;-57
2023/08/16 05:47:26;;;;;;;;;;;;;;;;;;5005283;28;20423;-57
2023/08/16 05:49:51;;;;;;;46.92;43.78;;;;;;;;;;5010679;28;19936;-57
2023/08/16 05:52:16;;;;;;;52.45;49.08;;;;;;;;;;5006697;28;20042;-57
2023/08/16 05:54:41;;;;;;;39.17;36.33;;;;;;;;;;5009442;28;20042;-57
2023/08/16 05:57:06;;;;;;;61.75;57.72;;;;;;;;;;5011158;28;20403;-58
2023/08/16 05:59:32;;;;;;;54.63;50.65;;;;;;;;;;5011028;28;20045;-57
2023/08/16 06:01:57;;;;;;;49.90;46.47;;;;;;;;;;5012073;28;20022;-58
2023/08/16 06:04:22;;;;;;;57.13;53.13;;;;;;;;;;5011730;28;20068;-58
2023/08/16 06:06:47;;;;;;;57.87;53.97;;;;;;;;;;5009683;28;20018;-58
2023/08/16 06:09:12;;;;;;;;;;;;;;;;;;5012505;28;20018;-57
2023/08/16 06:11:37;;;;;;;58.45;54.60;;;;;;;;;;5011941;28;19984;-57
2023/08/16 06:14:03;;;;;;;44.00;40.87;;;;;;;;;;5006577;28;20064;-58
2023/08/16 06:16:28;;;;;;;64.67;60.47;;;;;;;;;;5010531;28;20032;-58
2023/08/16 06:18:53;;;;;;;57.47;53.70;;;;;;;;;;5010832;28;20967;-58
2023/08/16 06:21:18;;;;;;;69.23;64.60;;;;;;;;;;5009049;28;20400;-57
2023/08/16 06:23:43;;;;;;;55.47;51.70;;;;;;;;;;5009759;28;20033;-58
2023/08/16 06:26:09;;;;;;;57.53;53.33;;;;;;;;;;5010856;28;20022;-60
2023/08/16 06:28:34;;;;;;;54.53;50.95;;;;;;;;;;5011167;28;20022;-59
2023/08/16 06:30:59;;;;;;;52.53;48.97;;;;;;;;;;5006259;28;20029;-59
2023/08/16 06:33:25;;;;;;;54.90;51.20;;;;;;;;;;5007820;28;20527;-59
2023/08/16 06:35:54;;;;;;;58.65;54.45;;;;;;;;;;5014651;28;20097;-58
2023/08/16 06:38:19;;;;;;;49.33;45.67;;;;;;;;;;5010347;28;20408;-59
2023/08/16 06:40:44;;;;;;;69.13;64.57;;;;;;;;;;5010049;28;20010;-58
2023/08/16 06:43:09;;;;;;;60.50;56.50;;;;;;;;;;5011273;28;20022;-59
2023/08/16 06:45:34;;;;;;;46.40;43.20;;;;;;;;;;5006356;28;20018;-58
2023/08/16 06:48:03;;;;;;;54.58;50.95;;;;;;;;;;4994323;28;20054;-58
2023/08/16 06:50:28;;;;;;;61.95;57.58;;;;;;;;;;5006209;28;20092;-59
2023/08/16 06:52:53;;;;;;;39.65;36.70;;;;;;;;;;5004209;28;20025;-56
2023/08/16 06:55:18;;;;;;;50.63;46.92;;;;;;;;;;5006859;28;20034;-57
2023/08/16 06:57:44;;;;;;;46.17;42.85;;;;;;;;;;5010223;28;20524;-57
2023/08/16 07:00:11;;;;;;;48.90;45.63;;;;;;;;;;5009794;28;20041;-58
2023/08/16 07:02:36;;;;;;;56.47;52.55;;;;;;;;;;5011142;28;20113;-57
2023/08/16 07:05:01;;;;;;;58.40;54.47;;;;;;;;;;5011387;28;20101;-57
2023/08/16 07:07:27;;;;;;;66.40;61.78;;;;;;;;;;5009332;28;20036;-56
2023/08/16 07:09:52;;;;;;;68.43;63.60;;;;;;;;;;5010853;28;20021;-57
2023/08/16 07:12:17;;;;;;;63.17;59.00;;;;;;;;;;5010689;28;20022;-57
2023/08/16 07:14:42;;;;;;;60.17;56.27;;;;;;;;;;5008209;28;20076;-59
2023/08/16 07:17:08;;;;;;;56.50;52.37;;;;;;;;;;5009095;28;20021;-57
2023/08/16 07:19:33;;;;;;;51.03;47.47;;;;;;;;;;5010787;28;20021;-57
2023/08/16 07:21:58;;;;;;;76.57;71.47;;;;;;;;;;5010690;28;20024;-57
2023/08/16 07:24:23;;;;;;;58.05;53.92;;;;;;;;;;5009673;28;20042;-58
2023/08/16 07:26:48;;;;;;;69.10;64.33;;;;;;;;;;5010194;28;20385;-59
2023/08/16 07:29:13;;;;;;;54.87;51.17;;;;;;;;;;5008874;28;20037;-57
2023/08/16 07:31:38;;;;;;;41.83;38.90;;;;;;;;;;5010743;28;20018;-60
2023/08/16 07:34:04;;;;;;;67.53;63.03;;;;;;;;;;5010384;28;20481;-58
2023/08/16 07:36:29;;;;;;;60.47;56.58;;;;;;;;;;5010361;28;20025;-58
2023/08/16 07:38:54;;;;;;;63.95;59.42;;;;;;;;;;5010595;28;20388;-57
2023/08/16 07:41:19;;;;;;;67.50;62.97;;;;;;;;;;5009494;28;20018;-57
2023/08/16 07:43:44;;;;;;;62.93;58.63;;;;;;;;;;5008878;28;20018;-57
2023/08/16 07:46:09;;;;;;;60.15;55.92;;;;;;;;;;5006893;28;20022;-57
2023/08/16 07:48:35;;;;;;;66.73;62.07;;;;;;;;;;5010502;28;20106;-58
2023/08/16 07:51:00;;;;;;;56.05;52.08;;;;;;;;;;5010412;28;20010;-57
2023/08/16 07:53:25;;;;;;;56.70;53.03;;;;;;;;;;5010646;28;20048;-58
2023/08/16 07:55:50;;;;;;;75.30;70.20;;;;;;;;;;5010485;28;20068;-57
2023/08/16 07:58:15;;;;;;;78.37;72.83;;;;;;;;;;5011931;28;20408;-58
2023/08/16 08:00:42;;;;;;;64.50;60.00;;;;;;;;;;5010759;28;20022;-57
2023/08/16 08:03:09;;;;;;;68.55;64.05;;;;;;;;;;5014231;28;20024;-57
2023/08/16 08:05:34;;;;;;;62.53;58.03;;;;;;;;;;5011478;28;20022;-58
2023/08/16 08:08:00;;;;;;;55.20;51.43;;;;;;;;;;5013487;28;20045;-58
2023/08/16 08:10:25;;;;;;;56.78;52.72;;;;;;;;;;5014063;28;20469;-58
2023/08/16 08:12:51;;;;;;;68.87;64.07;;;;;;;;;;5007026;28;20045;-57
2023/08/16 08:15:16;;;;;;;60.97;56.77;;;;;;;;;;5012082;28;20022;-58
2023/08/16 08:17:41;;;;;;;42.07;39.17;;;;;;;;;;5013635;28;20021;-58
2023/08/16 08:20:07;;;;;;;;;;;;;;;;;;5009452;28;20604;-57
2023/08/16 08:22:32;;;;;;;59.20;54.92;;;;;;;;;;5013588;28;19931;-58
2023/08/16 08:24:57;;;;;;;;;;;;;;;;;;5014438;28;20018;-58
2023/08/16 08:27:22;;;;;;;49.08;45.45;;;;;;;;;;5013381;28;20000;-57
2023/08/16 08:29:47;;;;;;;49.50;46.07;;;;;;;;;;5013790;28;20021;-57
2023/08/16 08:32:12;;;;;;;;;;;;;;;;;;5013602;28;20045;-57
2023/08/16 08:34:38;;;;;;;51.67;47.95;;;;;;;;;;5013999;28;19952;-58
2023/08/16 08:37:03;;;;;;;52.65;48.97;;;;;;;;;;5011384;28;20029;-58
2023/08/16 08:39:30;;;;;;;;;;;;;;;;;;5015058;28;20026;-56
2023/08/16 08:41:55;;;;;;;58.50;54.65;;;;;;;;;;5014081;28;19909;-57
2023/08/16 08:44:21;;;;;;;57.15;52.92;;;;;;;;;;5014013;28;20032;-57
2023/08/16 08:46:46;;;;;;;;;;;;;;;;;;5013327;28;20105;-57
2023/08/16 08:49:13;;;;;;;75.53;70.55;;;;;;;;;;5012218;28;19914;-57
2023/08/16 08:51:39;;;;;;;55.42;51.45;;;;;;;;;;5011381;28;20485;-57
2023/08/16 08:54:04;;;;;;;;;;;;;;;;;;5014343;28;20096;-58
2023/08/16 08:56:30;;;;;;;59.97;55.72;;;;;;;;;;5011754;28;19975;-57
2023/08/16 08:58:55;;;;;;;;;;;;;;;;;;5013711;28;20025;-57
2023/08/16 09:01:22;;;;;;;59.42;55.33;;;;;;;;;;5013699;28;19913;-57
2023/08/16 09:03:48;;;;;;;59.67;55.33;;;;;;;;;;5013889;28;20010;-58
2023/08/16 09:06:14;;;;;;;56.65;52.60;;;;;;;;;;5010960;28;20025;-58
2023/08/16 09:08:41;;;;;;;;;;;;;;;;;;5012783;28;20350;-57
2023/08/16 09:11:06;;;;;;;78.90;73.43;;;;;;;;;;5013204;28;19906;-58
2023/08/16 09:13:31;;;;;;;;;;;;;;;;;;5014011;28;20028;-58
2023/08/16 09:15:59;;;;;;;87.75;82.00;;;;;;;;;;5014072;28;19973;-57
2023/08/16 09:18:26;;;;;;;79.68;74.47;;;;;;;;;;5010024;28;20646;-57
2023/08/16 09:20:52;;;;;;;85.10;79.47;;;;;;;;;;5009389;28;20061;-57
2023/08/16 09:23:18;;;;;;;54.08;50.33;;;;;;;;;;5009745;28;20084;-58
2023/08/16 09:25:44;;;;;;;;;;;;;;;;;;5013341;28;20018;-58
2023/08/16 09:28:10;;;;;;;68.85;64.22;;;;;;;;;;5012041;28;20360;-57
2023/08/16 09:30:35;;;;;;;;;;;;;;;;;;5013452;28;20105;-58
2023/08/16 09:33:00;;;;;;;61.78;57.50;;;;;;;;;;5012486;28;20376;-57
2023/08/16 09:35:26;;;;;;;87.35;81.68;;;;;;;;;;5012448;28;20028;-57
2023/08/16 09:37:54;;;;;;;70.90;65.93;;;;;;;;;;5012122;28;20137;-57
2023/08/16 09:40:20;;;;;;;63.00;58.83;;;;;;;;;;5008526;28;20699;-58
2023/08/16 09:42:45;;;;;;;;;;;;;;;;;;5012803;28;20492;-56
2023/08/16 09:45:10;;;;;;;75.28;69.80;;;;;;;;;;5012506;28;19913;-56
2023/08/16 09:47:35;;;;;;;;;;;;;;;;;;5012530;28;20014;-57
2023/08/16 09:50:00;;;;;;;67.68;63.22;;;;;;;;;;5012249;28;19910;-58
2023/08/16 09:52:27;;;;;;;;;;;;;;;;;;5012704;28;20528;-57
2023/08/16 09:54:54;;;;;;;82.97;77.70;;;;;;;;;;5010907;28;19941;-57
2023/08/16 09:57:19;;;;;;;67.53;62.75;;;;;;;;;;5010619;28;20504;-57
2023/08/16 09:59:44;;;;;;;;;;;;;;;;;;5012361;28;20030;-57
2023/08/16 10:02:11;;;;;;;67.50;63.13;;;;;;;;;;5012139;28;20338;-58
2023/08/16 10:04:37;;;;;;;56.47;52.58;;;;;;;;;;5012081;28;20022;-59
2023/08/16 10:07:02;;;;;;;;;;;;;;;;;;5011122;28;20076;-59
2023/08/16 10:09:28;;;;;;;57.58;53.45;;;;;;;;;;5008378;28;19948;-57
2023/08/16 10:11:53;;;;;;;;;;;;;;;;;;5009068;28;20029;-58
2023/08/16 10:14:18;;;;;;;48.88;45.15;;;;;;;;;;5010736;28;19909;-58
2023/08/16 10:16:44;;;;;;;;;;;;;;;;;;5011892;28;20029;-57
2023/08/16 10:19:12;;;;;;;66.40;61.70;;;;;;;;;;5011662;28;19913;-58
2023/08/16 10:21:39;;;;;;;69.97;65.38;;;;;;;;;;5011790;28;20057;-55
2023/08/16 10:24:05;;;;;;;79.38;74.25;;;;;;;;;;5009396;28;20575;-57
2023/08/16 10:26:30;;;;;;;;;;;;;;;;;;5012185;28;20065;-57
2023/08/16 10:28:57;;;;;;;60.20;56.17;;;;;;;;;;5012074;28;19939;-57
2023/08/16 10:31:31;;;;;;;80.32;75.13;;;;;;;;;;5010848;28;20018;-59
2023/08/16 10:33:58;;;;;;;80.80;75.35;;;;;;;;;;4998340;28;20026;-59
2023/08/16 10:36:23;;;;;;;76.05;70.88;;;;;;;;;;5009504;28;20020;-58
2023/08/16 10:38:48;;;;;;;;;;;;;;;;;;5012453;28;20034;-58
2023/08/16 10:41:14;;;;;;;74.15;69.20;;;;;;;;;;5010033;28;20368;-58
2023/08/16 10:43:47;;;;;;;85.57;79.75;;;;;;;;;;5011473;28;20062;-58
2023/08/16 10:46:13;;;;;;;79.47;74.07;;;;;;;;;;5011052;28;20025;-58
2023/08/16 10:48:38;;;;;;;;;;;;;;;;;;5011389;28;20014;-56
2023/08/16 10:51:04;;;;;;;69.72;65.22;;;;;;;;;;5010848;28;20110;-58
2023/08/16 10:53:30;;;;;;;89.18;83.38;;;;;;;;;;5010049;28;20018;-58
2023/08/16 10:55:56;;;;;;;;;;;;;;;;;;5011875;28;20040;-59
2023/08/16 10:58:23;;;;;;;62.38;57.90;;;;;;;;;;5010292;28;20702;-57
2023/08/16 11:00:53;;;;;;;87.75;81.82;;;;;;;;;;5011147;28;20029;-57
2023/08/16 11:03:19;;;;;;;82.30;76.63;;;;;;;;;;5011220;28;20018;-58
2023/08/16 11:05:44;;;;;;;;;;;;;;;;;;5010303;28;20377;-57
2023/08/16 11:08:09;;;;;;;72.65;67.78;;;;;;;;;;5007344;28;19913;-57
2023/08/16 11:10:35;;;;;;;;;;;;;;;;;;5010661;28;20030;-57
2023/08/16 11:13:01;;;;;;;72.13;67.60;;;;;;;;;;5003891;28;19952;-57
2023/08/16 11:15:26;;;;;;;64.13;59.60;;;;;;;;;;5011142;28;20021;-58
2023/08/16 11:17:52;;;;;;;99.30;92.95;;;;;;;;;;5010679;28;20014;-58
2023/08/16 11:20:18;;;;;;;85.90;80.60;;;;;;;;;;5010673;28;20520;-58
2023/08/16 11:22:44;;;;;;;77.07;72.25;;;;;;;;;;5007336;28;20014;-57
2023/08/16 11:25:09;;;;;;;86.50;80.77;;;;;;;;;;5008739;28;20525;-58
2023/08/16 11:27:35;;;;;;;102.35;95.90;;;;;;;;;;5010292;28;20064;-58
2023/08/16 11:30:01;;;;;;;;;;;;;;;;;;5011476;28;20525;-57
2023/08/16 11:32:33;;;;;;;72.45;67.57;;;;;;;;;;5004292;28;19914;-57
2023/08/16 11:34:59;;;;;;;72.35;67.47;;;;;;;;;;5010491;28;20010;-57
2023/08/16 11:37:24;;;;;;;76.38;70.88;;;;;;;;;;5009926;28;20076;-58
2023/08/16 11:40:04;;;;;;;111.93;104.70;;;;;;;;;;5006607;28;20022;-57
2023/08/16 11:42:29;;;;;;;101.40;94.80;;;;;;;;;;5001740;28;20124;-58
2023/08/16 11:44:54;;;;;;;;;;;;;;;;;;5006191;28;20108;-58
2023/08/16 11:47:20;;;;;;;73.47;68.60;;;;;;;;;;5009599;28;19992;-58
2023/08/16 11:49:46;;;;;;;89.10;83.30;;;;;;;;;;5010478;28;20508;-59
2023/08/16 11:52:11;;;;;;;103.55;96.55;;;;;;;;;;5009701;28;20022;-58
2023/08/16 11:54:37;;;;;;;77.83;72.23;;;;;;;;;;5009525;28;20103;-59
2023/08/16 11:57:02;;;;;;;;;;;;;;;;;;5008340;28;20057;-59
2023/08/16 11:59:28;;;;;;;81.47;76.23;;;;;;;;;;5010098;28;20449;-58
2023/08/16 12:01:55;;;;;;;98.10;91.95;;;;;;;;;;5005868;28;20110;-58
2023/08/16 12:04:20;;;;;;;89.78;83.80;;;;;;;;;;5010053;28;20018;-58
2023/08/16 12:06:46;;;;;;;131.02;121.07;;;;;;;;;;5009680;28;20028;-57
2023/08/16 12:09:14;;;;;;;109.15;101.78;;;;;;;;;;5010353;28;20068;-57
2023/08/16 12:11:39;;;;;;;108.78;101.90;;;;;;;;;;5010019;28;20006;-57
2023/08/16 12:14:05;;;;;;;88.80;82.93;;;;;;;;;;5007518;28;20025;-57
2023/08/16 12:16:31;;;;;;;131.73;122.68;;;;;;;;;;5009546;28;20025;-57
2023/08/16 12:18:57;;;;;;;116.72;108.32;;;;;;;;;;5005820;28;20025;-57
2023/08/16 12:21:22;;;;;;;111.32;103.28;;;;;;;;;;5002902;28;20033;-59
2023/08/16 12:23:47;;;;;;;;;;;;;;;;;;5005514;28;20025;-57
2023/08/16 12:26:13;;;;;;;80.20;74.80;;;;;;;;;;5002561;28;20015;-57
2023/08/16 12:28:38;;;;;;;;;;;;;;;;;;5005517;28;20105;-57
2023/08/16 12:31:04;;;;;;;86.13;80.57;;;;;;;;;;5003380;28;19910;-58
2023/08/16 12:33:29;;;;;;;90.30;84.38;;;;;;;;;;5008850;28;20427;-58
2023/08/16 12:35:55;;;;;;;;;;;;;;;;;;5010651;28;20096;-58
2023/08/16 12:38:20;;;;;;;83.00;77.50;;;;;;;;;;5009669;28;20388;-58
2023/08/16 12:40:45;;;;;;;;;;;;;;;;;;5010298;28;20010;-59
2023/08/16 12:43:11;;;;;;;82.30;76.83;;;;;;;;;;5000035;28;19910;-57
2023/08/16 12:45:36;;;;;;;;;;;;;;;;;;5014210;28;20014;-58
2023/08/16 12:48:01;;;;;;;81.85;76.50;;;;;;;;;;5006753;28;19916;-58
2023/08/16 12:50:26;;;;;;;;;;;;;;;;;;5012133;28;20018;-57
2023/08/16 12:52:51;;;;;;;98.18;91.80;;;;;;;;;;5011674;28;19910;-57
2023/08/16 12:55:17;;;;;;;98.55;91.90;;;;;;;;;;5013279;28;20496;-59
2023/08/16 12:57:42;;;;;;;104.40;97.80;;;;;;;;;;5012492;28;20030;-58
2023/08/16 13:00:11;;;;;;;89.47;83.30;;;;;;;;;;5011200;28;20094;-56
2023/08/16 13:02:36;;;;;;;107.95;100.43;;;;;;;;;;5013285;28;20363;-58
2023/08/16 13:05:01;;;;;;;108.37;101.17;;;;;;;;;;5009102;28;20037;-59
2023/08/16 13:07:27;;;;;;;86.60;80.63;;;;;;;;;;5012191;28;20022;-58
2023/08/16 13:09:52;;;;;;;101.53;93.80;;;;;;;;;;5013249;28;20014;-58
2023/08/16 13:12:17;;;;;;;98.93;92.35;;;;;;;;;;5010658;28;20033;-58
2023/08/16 13:14:42;;;;;;;122.72;115.00;;;;;;;;;;5012741;28;20448;-58
2023/08/16 13:17:08;;;;;;;118.90;110.80;;;;;;;;;;5012058;28;20033;-57
2023/08/16 13:19:33;;;;;;;99.32;92.55;;;;;;;;;;5013026;28;20477;-58
2023/08/16 13:21:58;;;;;;;104.35;97.80;;;;;;;;;;5011372;28;20093;-57
2023/08/16 13:24:24;;;;;;;102.45;95.55;;;;;;;;;;5012651;28;20025;-57
2023/08/16 13:26:49;;;;;;;117.17;109.47;;;;;;;;;;5012475;28;20021;-58
2023/08/16 13:29:14;;;;;;;104.03;97.47;;;;;;;;;;5012208;28;20558;-58
2023/08/16 13:31:39;;;;;;;;;;;;;;;;;;5012983;28;20018;-58
2023/08/16 13:34:05;;;;;;;106.97;99.97;;;;;;;;;;5012602;28;20276;-57
2023/08/16 13:36:30;;;;;;;100.27;93.10;;;;;;;;;;5010067;28;20010;-59
2023/08/16 13:38:56;;;;;;;113.88;106.50;;;;;;;;;;5009013;28;20686;-57
2023/08/16 13:41:21;;;;;;;80.17;74.53;;;;;;;;;;5010257;28;20034;-58
2023/08/16 13:43:46;;;;;;;106.70;99.90;;;;;;;;;;5011063;28;20815;-57
2023/08/16 13:46:12;;;;;;;145.43;133.50;;;;;;;;;;5011070;28;20079;-57
2023/08/16 13:48:37;;;;;;;138.63;128.90;;;;;;;;;;5006595;28;20026;-57
2023/08/16 13:51:02;;;;;;;167.77;157.07;;;;;;;;;;5008188;28;20477;-58
2023/08/16 13:53:27;;;;;;;;;;;;;;;;;;5013882;28;20029;-58
2023/08/16 13:55:52;;;;;;;86.07;79.78;;;;;;;;;;5003056;28;20004;-57
2023/08/16 13:58:18;;;;;;;131.75;122.13;;;;;;;;;;5008109;28;20388;-57
2023/08/16 14:00:43;;;;;;;103.00;95.73;;;;;;;;;;5011039;28;20026;-58
2023/08/16 14:03:08;;;;;;;102.35;95.63;;;;;;;;;;5010185;28;20034;-57
2023/08/16 14:05:33;;;;;;;122.60;113.90;;;;;;;;;;5009194;28;20025;-57
2023/08/16 14:07:58;;;;;;;125.03;116.83;;;;;;;;;;5007371;28;20034;-58
2023/08/16 14:10:24;;;;;;;151.50;138.05;;;;;;;;;;5007389;28;20099;-58
2023/08/16 14:12:49;;;;;;;119.35;111.15;;;;;;;;;;5007121;28;20081;-59
2023/08/16 14:15:14;;;;;;;106.93;99.50;;;;;;;;;;5011371;28;20026;-58
2023/08/16 14:17:39;;;;;;;123.07;114.50;;;;;;;;;;5011134;28;20418;-57
2023/08/16 14:20:07;;;;;;;110.07;102.87;;;;;;;;;;5011442;28;20026;-58